Time;durP1;ratioP1;P1;durP2;ratioP2;P2;SDS_P1;SDS_P2;PMS_P1;PMS_P2;Temp;Humidity;BMP_temperature;BMP_pressure;BME280_temperature;BME280_humidity;BME280_pressure;Samples;Min_cycle;Max_cycle;Signal;HPM_P1;HPM_P2
2022/07/23 00:01:56;;;;;;;14.15;12.75;;;;;;;18.33;65.17;100245.88;2163324;81;20950;-72
2022/07/23 00:04:57;;;;;;;15.10;12.85;;;;;;;18.20;65.55;100239.73;2157285;81;21023;-72
2022/07/23 00:07:57;;;;;;;17.20;13.80;;;;;;;18.06;65.85;100242.47;2166557;81;21512;-71
2022/07/23 00:10:59;;;;;;;12.90;11.48;;;;;;;17.98;66.05;100245.39;2190210;80;20994;-72
2022/07/23 00:14:00;;;;;;;14.35;12.70;;;;;;;17.91;66.21;100243.27;2193178;80;21014;-71
2022/07/23 00:17:00;;;;;;;14.90;11.48;;;;;;;17.87;66.43;100238.81;2178585;80;21035;-71
2022/07/23 00:20:03;;;;;;;14.83;11.97;;;;;;;17.85;66.46;100240.91;2192547;80;20924;-72
2022/07/23 00:23:04;;;;;;;11.90;10.60;;;;;;;17.75;66.30;100243.69;2195372;80;20955;-72
2022/07/23 00:26:07;;;;;;;12.37;10.63;;;;;;;17.70;66.39;100245.66;2238195;78;20981;-71
2022/07/23 00:29:08;;;;;;;13.83;10.88;;;;;;;17.71;66.58;100244.64;2241392;78;20997;-71
2022/07/23 00:32:09;;;;;;;15.38;11.05;;;;;;;17.68;66.50;100247.22;2233743;78;22308;-71
2022/07/23 00:35:11;;;;;;;11.70;10.55;;;;;;;17.70;66.57;100247.00;2233282;78;21041;-71
2022/07/23 00:38:12;;;;;;;14.15;11.20;;;;;;;17.67;66.38;100239.37;2235829;78;21012;-71
2022/07/23 00:41:13;;;;;;;14.60;11.50;;;;;;;17.66;66.44;100251.15;2239461;78;20958;-72
2022/07/23 00:44:23;;;;;;;12.00;10.43;;;;;;;17.62;66.44;100253.41;2208047;78;21022;-71
2022/07/23 00:47:24;;;;;;;18.20;13.90;;;;;;;17.61;66.43;100252.28;2236644;78;21009;-71
2022/07/23 00:50:26;;;;;;;17.12;12.18;;;;;;;17.53;66.82;100245.80;2241573;78;21417;-72
2022/07/23 00:53:27;;;;;;;12.10;10.18;;;;;;;17.46;66.87;100250.66;2245056;77;21017;-72
2022/07/23 00:56:29;;;;;;;13.22;11.22;;;;;;;17.43;66.81;100245.72;2239215;78;21037;-72
2022/07/23 00:59:30;;;;;;;11.53;10.32;;;;;;;17.35;67.00;100247.27;2239948;78;20978;-71
2022/07/23 01:02:31;;;;;;;12.10;10.90;;;;;;;17.30;67.17;100251.09;2241433;78;21629;-71
2022/07/23 01:05:33;;;;;;;13.98;11.57;;;;;;;17.23;67.15;100247.08;2242900;78;21044;-71
2022/07/23 01:08:34;;;;;;;13.08;11.73;;;;;;;17.21;67.64;100240.27;2244992;78;20986;-71
2022/07/23 01:11:37;;;;;;;12.13;10.93;;;;;;;17.12;67.30;100244.17;2242947;78;21008;-71
2022/07/23 01:14:40;;;;;;;13.32;11.38;;;;;;;17.06;67.39;100246.34;2239864;78;21569;-72
2022/07/23 01:17:41;;;;;;;13.95;11.68;;;;;;;17.02;67.44;100245.41;2241320;78;20962;-71
2022/07/23 01:20:43;;;;;;;12.35;11.15;;;;;;;16.98;67.53;100252.23;2240481;78;20981;-72
2022/07/23 01:23:44;;;;;;;14.33;11.80;;;;;;;16.97;67.68;100249.74;2248069;78;21087;-72
2022/07/23 01:26:47;;;;;;;13.80;12.40;;;;;;;16.98;68.00;100243.38;2244552;78;20931;-71
2022/07/23 01:29:48;;;;;;;15.30;13.62;;;;;;;16.98;68.10;100248.73;2198224;80;21084;-71
2022/07/23 01:32:51;;;;;;;17.17;13.83;;;;;;;17.00;68.39;100247.47;2198511;80;21025;-71
2022/07/23 01:35:53;;;;;;;15.53;13.15;;;;;;;17.02;68.50;100249.95;2200433;80;21528;-71
2022/07/23 01:38:56;;;;;;;19.57;13.90;;;;;;;16.98;68.45;100249.55;2198448;80;21017;-71
2022/07/23 01:41:57;;;;;;;17.87;14.63;;;;;;;16.94;68.59;100252.31;2206892;79;20987;-72
2022/07/23 01:44:59;;;;;;;18.12;14.45;;;;;;;16.89;68.76;100256.12;2197854;80;21077;-72
2022/07/23 01:48:00;;;;;;;14.00;12.37;;;;;;;16.88;69.05;100252.32;2172894;81;20960;-72
2022/07/23 01:51:02;;;;;;;18.65;12.88;;;;;;;16.82;68.87;100247.78;2159192;80;21106;-71
2022/07/23 01:54:08;;;;;;;18.17;14.87;;;;;;;16.75;68.93;100237.86;2165994;81;21012;-71
2022/07/23 01:57:09;;;;;;;16.42;13.75;;;;;;;16.70;69.39;100240.84;2172616;82;21075;-72
2022/07/23 02:00:12;;;;;;;19.27;13.18;;;;;;;16.58;69.62;100241.44;2167126;82;21547;-71
2022/07/23 02:03:17;;;;;;;18.77;13.95;;;;;;;16.55;69.78;100241.81;2165766;81;21087;-72
2022/07/23 02:06:18;;;;;;;14.10;12.70;;;;;;;16.48;69.82;100245.00;2167061;82;21082;-72
2022/07/23 02:09:19;;;;;;;16.02;12.98;;;;;;;16.45;69.89;100242.73;2168238;81;21454;-71
2022/07/23 02:12:21;;;;;;;15.95;12.58;;;;;;;16.43;69.74;100250.14;2169647;82;21079;-71
2022/07/23 02:15:23;;;;;;;16.07;13.35;;;;;;;16.43;69.80;100248.80;2168628;82;21019;-72
2022/07/23 02:18:24;;;;;;;17.50;14.28;;;;;;;16.40;69.74;100246.52;2144028;82;21037;-72
2022/07/23 02:21:26;;;;;;;16.52;13.10;;;;;;;16.37;69.90;100240.23;2167169;82;21450;-71
2022/07/23 02:24:27;;;;;;;19.37;14.43;;;;;;;16.35;69.84;100243.10;2170003;81;21077;-71
2022/07/23 02:27:29;;;;;;;18.55;15.48;;;;;;;16.24;70.22;100244.20;2161938;81;21022;-71
2022/07/23 02:30:31;;;;;;;18.10;13.05;;;;;;;16.20;70.55;100242.97;2171374;82;21050;-72
2022/07/23 02:33:33;;;;;;;18.40;16.00;;;;;;;16.18;70.35;100231.62;2167406;82;20983;-71
2022/07/23 02:36:34;;;;;;;22.02;15.85;;;;;;;16.11;70.87;100221.72;2168452;82;21510;-71
2022/07/23 02:39:37;;;;;;;17.45;14.20;;;;;;;16.10;70.97;100232.09;2167612;82;21109;-71
2022/07/23 02:42:38;;;;;;;15.53;13.22;;;;;;;16.10;70.89;100235.30;2164392;82;21010;-71
2022/07/23 02:45:40;;;;;;;18.98;12.73;;;;;;;16.13;70.82;100240.24;2168537;82;21002;-71
2022/07/23 02:48:41;;;;;;;14.13;12.15;;;;;;;16.11;70.68;100238.30;2170188;81;21677;-72
2022/07/23 02:51:42;;;;;;;20.23;13.32;;;;;;;16.10;70.76;100238.79;2165343;82;21031;-71
2022/07/23 02:54:43;;;;;;;17.52;14.80;;;;;;;16.06;70.93;100230.86;2172962;82;20992;-71
2022/07/23 02:57:46;;;;;;;19.25;15.93;;;;;;;16.07;71.19;100219.63;2164187;82;21628;-72
2022/07/23 03:00:47;;;;;;;17.57;14.93;;;;;;;16.10;71.31;100223.25;2140186;82;21193;-71
2022/07/23 03:03:48;;;;;;;16.25;14.55;;;;;;;16.11;71.31;100227.08;2164870;82;21075;-71
2022/07/23 03:06:49;;;;;;;19.35;12.58;;;;;;;16.12;71.33;100218.53;2163880;82;20972;-71
2022/07/23 03:09:50;;;;;;;17.37;13.40;;;;;;;16.17;71.39;100218.76;2156507;81;21038;-72
2022/07/23 03:12:53;;;;;;;17.82;14.50;;;;;;;16.18;71.20;100226.27;2158909;82;21452;-72
2022/07/23 03:15:54;;;;;;;20.15;15.10;;;;;;;16.18;71.37;100223.08;2161748;81;21067;-71
2022/07/23 03:18:55;;;;;;;17.55;14.55;;;;;;;16.19;71.66;100222.07;2163244;82;21036;-72
2022/07/23 03:21:56;;;;;;;19.62;13.90;;;;;;;16.21;71.58;100224.01;2159993;82;21030;-71
2022/07/23 03:24:57;;;;;;;20.62;15.80;;;;;;;16.23;71.52;100223.82;2135404;82;20992;-72
2022/07/23 03:28:00;;;;;;;16.57;13.60;;;;;;;16.25;71.73;100215.91;2165697;82;21089;-71
2022/07/23 03:31:02;;;;;;;13.58;12.20;;;;;;;16.30;71.75;100225.50;2159854;82;21042;-71
2022/07/23 03:34:03;;;;;;;20.65;13.95;;;;;;;16.39;71.79;100236.85;2163745;82;21135;-71
2022/07/23 03:37:04;;;;;;;17.87;14.80;;;;;;;16.45;71.90;100237.37;2160664;81;21061;-71
2022/07/23 03:40:07;;;;;;;16.23;14.53;;;;;;;16.55;72.13;100236.45;2165371;82;21019;-71
2022/07/23 03:43:08;;;;;;;20.50;14.38;;;;;;;16.73;72.17;100231.05;2158231;82;20980;-71
2022/07/23 03:46:09;;;;;;;18.37;13.83;;;;;;;16.88;71.97;100234.91;2159134;82;21014;-71
2022/07/23 03:49:10;;;;;;;23.62;14.60;;;;;;;17.08;72.03;100232.22;2158649;82;21039;-71
2022/07/23 03:52:11;;;;;;;18.75;14.20;;;;;;;17.27;72.02;100230.05;2165215;81;20958;-71
2022/07/23 03:55:13;;;;;;;17.57;15.13;;;;;;;17.40;71.81;100232.73;2160116;81;21621;-71
2022/07/23 03:58:14;;;;;;;16.90;13.72;;;;;;;17.51;71.73;100233.92;2164318;81;21035;-71
2022/07/23 04:01:14;;;;;;;13.68;12.28;;;;;;;17.75;71.85;100231.62;2178165;81;21509;-71
2022/07/23 04:04:15;;;;;;;14.35;12.75;;;;;;;18.08;71.78;100234.22;2177778;81;21565;-71
2022/07/23 04:07:17;;;;;;;16.02;12.93;;;;;;;18.42;71.46;100234.36;2177496;81;21017;-71
2022/07/23 04:10:20;;;;;;;14.95;13.38;;;;;;;18.71;71.29;100234.27;2180257;81;21043;-71
2022/07/23 04:13:21;;;;;;;13.90;12.65;;;;;;;19.08;71.20;100236.31;2180169;81;21355;-71
2022/07/23 04:16:22;;;;;;;17.35;13.25;;;;;;;19.45;70.77;100234.52;2178705;81;21027;-72
2022/07/23 04:19:24;;;;;;;16.60;12.47;;;;;;;19.77;70.34;100237.95;2179211;81;21074;-72
2022/07/23 04:22:27;;;;;;;17.45;12.88;;;;;;;20.21;70.24;100230.56;2175903;80;21039;-72
2022/07/23 04:25:28;;;;;;;17.10;14.07;;;;;;;20.39;69.51;100220.30;2180773;81;21024;-72
2022/07/23 04:28:29;;;;;;;14.50;13.13;;;;;;;20.63;69.23;100223.09;2178377;80;21011;-72
2022/07/23 04:31:30;;;;;;;14.83;13.32;;;;;;;20.97;68.71;100213.41;2178565;80;21054;-71
2022/07/23 04:34:32;;;;;;;16.60;13.48;;;;;;;21.20;68.29;100205.36;2178801;80;21035;-72
2022/07/23 04:37:33;;;;;;;14.33;12.80;;;;;;;21.35;67.72;100206.77;2177754;80;21030;-72
2022/07/23 04:40:34;;;;;;;14.15;12.75;;;;;;;21.59;67.71;100201.64;2180291;80;20987;-72
2022/07/23 04:43:36;;;;;;;18.05;14.30;;;;;;;21.84;67.27;100204.05;2176192;80;21549;-72
2022/07/23 04:46:37;;;;;;;18.05;13.68;;;;;;;22.22;67.07;100201.34;2179981;80;21641;-72
2022/07/23 04:49:40;;;;;;;16.62;12.37;;;;;;;22.45;66.33;100194.18;2179217;80;21047;-72
2022/07/23 04:52:41;;;;;;;14.20;12.70;;;;;;;22.73;65.95;100195.48;2178748;80;21054;-72
2022/07/23 04:55:42;;;;;;;13.72;12.30;;;;;;;23.16;65.51;100188.59;2177846;80;21026;-72
2022/07/23 04:58:44;;;;;;;15.03;13.00;;;;;;;23.55;64.84;100184.55;2174309;80;21053;-72
2022/07/23 05:01:45;;;;;;;14.83;12.05;;;;;;;23.76;63.96;100178.87;2164132;81;21054;-72
2022/07/23 05:04:47;;;;;;;12.35;10.78;;;;;;;23.95;63.09;100168.53;2163556;81;21075;-72
2022/07/23 05:07:48;;;;;;;15.58;12.30;;;;;;;23.79;62.41;100170.78;2163493;81;20951;-72
2022/07/23 05:10:49;;;;;;;11.15;10.10;;;;;;;23.82;62.33;100172.47;2162587;81;21054;-72
2022/07/23 05:13:51;;;;;;;12.43;11.10;;;;;;;24.24;61.41;100158.26;2161398;81;22291;-73
2022/07/23 05:16:54;;;;;;;14.95;11.38;;;;;;;24.53;60.63;100154.78;2162777;81;21001;-72
2022/07/23 05:19:57;;;;;;;11.53;10.43;;;;;;;24.39;59.91;100150.28;2163864;81;21073;-72
2022/07/23 05:22:58;;;;;;;12.30;11.12;;;;;;;24.51;60.13;100142.55;2156845;81;20979;-72
2022/07/23 05:25:59;;;;;;;11.85;10.65;;;;;;;24.43;59.15;100133.50;2156107;81;20943;-72
2022/07/23 05:29:02;;;;;;;16.93;10.78;;;;;;;24.06;59.00;100126.92;2166423;80;21082;-72
2022/07/23 05:32:04;;;;;;;12.13;10.32;;;;;;;23.92;59.15;100122.98;2139196;82;21025;-72
2022/07/23 05:35:07;;;;;;;11.48;9.68;;;;;;;23.71;58.93;100116.53;2137946;82;20990;-72
2022/07/23 05:38:10;;;;;;;11.28;10.03;;;;;;;23.44;59.24;100113.73;2141685;82;21508;-72
2022/07/23 05:41:11;;;;;;;12.07;9.80;;;;;;;23.23;58.92;100109.41;2163829;82;21016;-72
2022/07/23 05:44:12;;;;;;;13.60;9.65;;;;;;;23.05;59.32;100106.98;2165148;80;21079;-72
2022/07/23 05:47:15;;;;;;;15.10;9.90;;;;;;;22.95;59.39;100098.71;2157145;81;20972;-72
2022/07/23 05:50:16;;;;;;;11.22;9.90;;;;;;;22.90;59.50;100094.03;2160377;80;21059;-72
2022/07/23 05:53:19;;;;;;;10.30;9.23;;;;;;;22.92;59.80;100095.13;2163258;81;21558;-72
2022/07/23 05:56:22;;;;;;;12.47;9.63;;;;;;;22.98;59.55;100087.42;2162098;81;21050;-72
2022/07/23 05:59:23;;;;;;;12.37;9.85;;;;;;;23.01;59.75;100083.67;2132574;82;21561;-72
2022/07/23 06:02:24;;;;;;;10.70;9.43;;;;;;;23.11;59.56;100082.98;2146232;82;21089;-72
2022/07/23 06:05:26;;;;;;;10.25;9.25;;;;;;;23.23;59.19;100083.70;2144897;82;20972;-72
2022/07/23 06:08:28;;;;;;;13.43;9.98;;;;;;;23.27;58.80;100082.11;2149533;82;21022;-72
2022/07/23 06:11:29;;;;;;;13.00;9.15;;;;;;;23.30;58.91;100088.11;2148835;82;21016;-72
2022/07/23 06:14:30;;;;;;;11.45;9.93;;;;;;;23.24;58.78;100082.62;2146689;82;21608;-72
2022/07/23 06:17:32;;;;;;;14.90;9.35;;;;;;;23.18;58.94;100084.98;2149032;82;21073;-72
2022/07/23 06:20:33;;;;;;;13.48;9.68;;;;;;;23.24;59.09;100093.45;2147667;82;20979;-71
2022/07/23 06:23:34;;;;;;;11.65;9.18;;;;;;;23.29;59.09;100094.59;2141207;82;21047;-72
2022/07/23 06:26:35;;;;;;;12.80;9.75;;;;;;;23.43;58.89;100101.27;2146971;81;21010;-74
2022/07/23 06:29:37;;;;;;;11.70;9.05;;;;;;;23.62;59.09;100105.27;2143894;81;21055;-71
2022/07/23 06:32:38;;;;;;;13.65;9.05;;;;;;;23.85;58.62;100104.22;2116471;83;21025;-71
2022/07/23 06:35:39;;;;;;;10.88;9.35;;;;;;;24.10;58.77;100108.24;2120417;83;21047;-72
2022/07/23 06:38:40;;;;;;;10.25;9.25;;;;;;;24.28;58.17;100115.20;2148531;82;21182;-72
2022/07/23 06:41:41;;;;;;;13.45;9.13;;;;;;;24.47;57.94;100113.78;2147729;82;20948;-72
2022/07/23 06:44:42;;;;;;;10.15;9.00;;;;;;;24.60;57.61;100107.89;2147279;82;21027;-70
2022/07/23 06:47:44;;;;;;;9.80;8.83;;;;;;;24.90;57.18;100109.20;2144480;82;21030;-71
2022/07/23 06:50:45;;;;;;;9.30;7.95;;;;;;;25.08;56.89;100104.42;2145008;82;21031;-70
2022/07/23 06:53:46;;;;;;;11.55;9.80;;;;;;;25.29;55.46;100106.74;2145642;82;21505;-73
2022/07/23 06:56:47;;;;;;;13.20;9.65;;;;;;;25.38;55.85;100101.08;2115316;83;21012;-71
2022/07/23 06:59:48;;;;;;;11.00;9.63;;;;;;;25.43;56.02;100094.31;2146838;81;21035;-72
2022/07/23 07:02:49;;;;;;;10.08;9.08;;;;;;;25.48;55.26;100090.23;2157431;82;21038;-73
2022/07/23 07:05:51;;;;;;;10.32;8.20;;;;;;;25.50;55.06;100093.51;2238784;78;20997;-72
2022/07/23 07:08:52;;;;;;;11.15;9.30;;;;;;;25.52;55.20;100093.25;2242591;78;20962;-69
2022/07/23 07:11:53;;;;;;;12.23;9.18;;;;;;;25.46;54.76;100087.80;2240252;78;21049;-70
2022/07/23 07:14:54;;;;;;;11.97;9.00;;;;;;;25.63;55.23;100082.70;2235327;78;21634;-70
2022/07/23 07:17:55;;;;;;;10.13;8.75;;;;;;;25.84;55.07;100076.23;2243380;77;21014;-70
2022/07/23 07:20:57;;;;;;;12.28;9.43;;;;;;;26.15;54.72;100077.64;2240224;78;21100;-70
2022/07/23 07:23:58;;;;;;;11.93;8.98;;;;;;;26.38;54.05;100077.64;2237100;78;21036;-71
2022/07/23 07:27:00;;;;;;;12.30;8.95;;;;;;;26.66;53.76;100077.65;2238425;78;21011;-70
2022/07/23 07:30:03;;;;;;;9.50;7.70;;;;;;;26.85;52.10;100083.89;2239184;78;20962;-71
2022/07/23 07:33:04;;;;;;;12.70;8.90;;;;;;;27.08;52.48;100077.83;2208263;78;21421;-71
2022/07/23 07:36:06;;;;;;;9.58;8.55;;;;;;;27.29;51.67;100076.45;2242996;78;21391;-71
2022/07/23 07:39:09;;;;;;;9.80;8.08;;;;;;;27.51;51.46;100079.61;2244324;78;20994;-71
2022/07/23 07:42:10;;;;;;;10.00;8.23;;;;;;;27.87;51.08;100075.33;2241025;78;21005;-71
2022/07/23 07:45:11;;;;;;;10.50;8.58;;;;;;;28.08;50.87;100070.02;2194174;80;21014;-70
2022/07/23 07:48:12;;;;;;;9.45;8.45;;;;;;;28.13;50.46;100064.52;2236558;78;21012;-70
2022/07/23 07:51:13;;;;;;;8.68;7.87;;;;;;;28.36;49.64;100058.06;2239341;78;21491;-70
2022/07/23 07:54:17;;;;;;;9.18;7.75;;;;;;;28.55;49.92;100063.10;2241851;78;21000;-71
2022/07/23 07:57:18;;;;;;;11.48;8.30;;;;;;;28.88;49.45;100061.93;2238013;78;21013;-70
2022/07/23 08:00:19;;;;;;;12.00;8.03;;;;;;;28.97;47.54;100058.81;2237665;78;21069;-70
2022/07/23 08:03:20;;;;;;;8.80;7.90;;;;;;;29.01;48.26;100061.24;2240990;78;21342;-71
2022/07/23 08:06:21;;;;;;;8.00;7.30;;;;;;;28.94;47.48;100057.22;2240152;78;20958;-72
2022/07/23 08:09:23;;;;;;;10.03;8.18;;;;;;;28.75;48.08;100048.98;2238069;78;20977;-71
2022/07/23 08:12:24;;;;;;;8.50;7.58;;;;;;;28.74;47.16;100048.70;2245593;77;21615;-71
2022/07/23 08:15:28;;;;;;;15.23;8.90;;;;;;;28.58;47.90;100040.69;2237303;78;21043;-71
2022/07/23 08:18:30;;;;;;;9.88;8.30;;;;;;;28.58;47.07;100039.33;2238944;78;21007;-71
2022/07/23 08:21:31;;;;;;;10.95;8.23;;;;;;;28.62;46.61;100043.65;2235961;78;21578;-72
2022/07/23 08:24:32;;;;;;;11.28;8.50;;;;;;;28.55;47.17;100044.00;2244176;78;21044;-71
2022/07/23 08:27:33;;;;;;;10.58;8.58;;;;;;;28.52;45.73;100040.48;2241568;78;21429;-71
2022/07/23 08:30:36;;;;;;;14.30;9.50;;;;;;;28.31;45.84;100039.81;2238293;78;20981;-71
2022/07/23 08:33:37;;;;;;;10.30;8.43;;;;;;;28.18;46.44;100043.75;2241518;78;20993;-71
2022/07/23 08:36:38;;;;;;;9.93;8.60;;;;;;;28.14;47.07;100043.52;2243613;78;21056;-71
2022/07/23 08:39:40;;;;;;;10.95;8.00;;;;;;;28.18;47.14;100042.38;2238587;78;20958;-71
2022/07/23 08:42:41;;;;;;;9.73;8.68;;;;;;;28.39;46.38;100035.66;2239990;78;21029;-71
2022/07/23 08:45:46;;;;;;;11.65;9.10;;;;;;;28.74;47.07;100045.98;2242359;78;20977;-72
2022/07/23 08:48:48;;;;;;;12.28;8.75;;;;;;;29.08;46.69;100042.34;2241385;78;21044;-72
2022/07/23 08:51:50;;;;;;;9.60;8.70;;;;;;;29.37;46.68;100051.80;2194625;80;21026;-71
2022/07/23 08:54:52;;;;;;;12.50;8.90;;;;;;;29.58;46.97;100042.23;2167880;81;20994;-71
2022/07/23 08:57:54;;;;;;;11.05;8.53;;;;;;;30.13;46.02;100007.52;2167914;81;21087;-71
2022/07/23 09:00:56;;;;;;;9.50;8.45;;;;;;;30.50;44.54;99995.66;2176215;81;21077;-71
2022/07/23 09:03:57;;;;;;;15.23;9.05;;;;;;;30.50;44.54;99995.66;2175607;80;21039;-71
2022/07/23 09:06:59;;;;;;;9.88;8.00;;;;;;;30.66;43.77;100018.05;2149759;80;21022;-71
2022/07/23 09:10:10;;;;;;;9.13;8.33;;;;;;;30.48;44.13;100020.34;2146378;81;21116;-71
2022/07/23 09:13:43;;;;;;;9.40;8.33;;;;;;;30.63;44.46;100022.77;2180803;81;21498;-70
2022/07/23 09:16:45;;;;;;;9.75;8.85;;;;;;;30.76;44.24;100017.06;2175618;80;21065;-71
2022/07/23 09:19:46;;;;;;;11.95;8.38;;;;;;;30.95;43.75;100019.74;2176849;81;21069;-71
2022/07/23 09:22:48;;;;;;;10.55;8.43;;;;;;;31.12;43.78;100015.81;2178304;81;20917;-71
2022/07/23 09:25:50;;;;;;;8.55;7.75;;;;;;;31.30;43.55;100015.42;2179164;81;21083;-71
2022/07/23 09:29:14;;;;;;;8.75;7.95;;;;;;;31.32;41.33;100012.38;2178365;80;21003;-71
2022/07/23 09:32:16;;;;;;;12.25;8.18;;;;;;;31.22;41.96;100016.14;2178566;81;22362;-71
2022/07/23 09:35:18;;;;;;;11.45;7.85;;;;;;;31.24;41.37;100016.09;2181126;81;20964;-71
2022/07/23 09:38:23;;;;;;;15.03;8.38;;;;;;;31.20;41.92;100008.24;2176971;81;21516;-71
2022/07/23 09:41:25;;;;;;;8.75;7.85;;;;;;;31.23;42.33;100004.08;2180099;81;21038;-71
2022/07/23 09:44:26;;;;;;;9.13;7.90;;;;;;;31.55;42.53;100000.36;2146181;81;21050;-71
2022/07/23 09:47:32;;;;;;;10.05;7.47;;;;;;;32.06;42.26;99999.15;2182635;80;20950;-71
2022/07/23 09:50:33;;;;;;;14.65;7.45;;;;;;;32.29;41.29;99993.06;2179799;81;20970;-71
2022/07/23 09:53:34;;;;;;;9.03;7.40;;;;;;;32.08;38.78;99990.05;2182938;80;21671;-72
2022/07/23 09:56:36;;;;;;;9.83;7.85;;;;;;;31.92;39.98;99986.88;2178931;80;20995;-71
2022/07/23 09:59:39;;;;;;;9.48;7.72;;;;;;;31.65;39.63;99998.77;2180391;80;21018;-71
2022/07/23 10:02:40;;;;;;;9.58;7.28;;;;;;;31.50;39.41;99997.73;2162951;81;21079;-71
2022/07/23 10:05:48;;;;;;;15.90;7.53;;;;;;;31.43;39.90;99997.36;2122264;82;21373;-71
2022/07/23 10:08:51;;;;;;;8.33;7.53;;;;;;;31.33;39.54;99998.92;2162808;81;21473;-71
2022/07/23 10:12:51;;;;;;;13.70;7.70;;;;;;;31.31;39.99;100005.27;2159957;82;21107;-71
2022/07/23 10:15:08;;;;;;;13.58;7.47;;;;;;;31.25;40.65;99999.08;2143950;82;21123;-71
2022/07/23 10:18:12;;;;;;;9.58;7.90;;;;;;;31.26;40.33;99997.42;2162772;82;21451;-71
2022/07/23 10:21:50;;;;;;;10.43;8.30;;;;;;;31.23;40.98;99999.97;2164235;82;21031;-72
2022/07/23 10:25:09;;;;;;;9.93;7.95;;;;;;;31.07;40.97;100002.22;2163274;82;21378;-71
2022/07/23 10:28:43;;;;;;;9.25;8.38;;;;;;;30.79;41.20;100011.81;2159767;81;21620;-71
2022/07/23 10:31:55;;;;;;;12.70;7.85;;;;;;;30.45;41.34;100016.27;2161027;82;21327;-71
2022/07/23 10:35:14;;;;;;;14.63;9.85;;;;;;;29.94;41.96;100000.16;2165363;81;21053;-71
2022/07/23 10:38:39;;;;;;;13.58;8.15;;;;;;;29.34;42.61;100013.61;2161520;82;21062;-71
2022/07/23 10:41:41;;;;;;;10.23;8.00;;;;;;;28.79;42.94;100024.09;2162026;82;21051;-71
2022/07/23 10:44:47;;;;;;;16.65;8.00;;;;;;;28.27;43.40;100044.23;2155717;82;21045;-71
2022/07/23 10:47:50;;;;;;;10.95;8.48;;;;;;;27.91;43.93;100039.60;2159686;82;20964;-71
2022/07/23 10:51:14;;;;;;;11.45;8.48;;;;;;;27.61;44.52;100050.12;2162050;82;21082;-71
2022/07/23 10:54:22;;;;;;;10.32;8.00;;;;;;;27.36;45.14;100061.96;2164542;82;21063;-72
2022/07/23 10:57:27;;;;;;;10.03;7.53;;;;;;;27.00;45.94;100066.14;2159905;82;21093;-71
2022/07/23 11:00:31;;;;;;;9.25;6.72;;;;;;;26.67;46.67;100073.05;2161766;82;21105;-71
2022/07/23 11:03:40;;;;;;;8.10;5.42;;;;;;;26.31;46.90;100076.56;2168163;80;21067;-71
2022/07/23 11:06:53;;;;;;;9.75;5.60;;;;;;;25.99;47.38;100073.27;2146010;82;21615;-71
2022/07/23 11:09:55;;;;;;;8.13;5.55;;;;;;;25.69;48.34;100076.19;2168893;81;20970;-72
2022/07/23 11:12:59;;;;;;;11.53;5.70;;;;;;;25.28;49.69;100090.97;2171453;82;21031;-72
2022/07/23 11:16:18;;;;;;;8.98;6.78;;;;;;;24.95;50.57;100108.42;2166937;81;21041;-72
2022/07/23 11:19:19;;;;;;;16.35;8.50;;;;;;;24.51;52.16;100142.55;2141351;82;21700;-70
2022/07/23 11:22:49;;;;;;;11.15;9.28;;;;;;;24.06;53.86;100174.34;2170701;82;21483;-71
2022/07/23 11:25:50;;;;;;;;;;;;;;;23.59;56.13;100173.48;2172822;81;21031;-71
2022/07/23 11:28:52;;;;;;;16.02;9.60;;;;;;;23.09;57.93;100181.20;2163220;81;20213;-71
2022/07/23 11:31:56;;;;;;;13.43;9.25;;;;;;;22.79;58.20;100180.16;2170473;81;21021;-71
2022/07/23 11:34:58;;;;;;;14.63;9.80;;;;;;;22.59;59.15;100173.88;2169560;82;21541;-72
2022/07/23 11:38:13;;;;;;;11.43;9.53;;;;;;;22.46;59.98;100164.18;2168428;81;21482;-71
2022/07/23 11:41:14;;;;;;;11.25;9.15;;;;;;;22.42;60.77;100162.23;2168368;81;20999;-72
2022/07/23 11:44:32;;;;;;;11.85;10.05;;;;;;;22.33;61.45;100153.16;2170348;82;21075;-72
2022/07/23 11:47:34;;;;;;;15.10;9.90;;;;;;;22.37;62.00;100143.48;2170007;82;21074;-71
2022/07/23 11:50:37;;;;;;;15.03;11.33;;;;;;;22.35;62.23;100129.39;2163785;81;20983;-71
2022/07/23 11:53:38;;;;;;;19.92;12.80;;;;;;;22.38;62.70;100121.33;2169501;81;21041;-71
2022/07/23 11:56:57;;;;;;;11.93;9.00;;;;;;;22.39;62.95;100086.50;2166171;81;21038;-71
2022/07/23 12:00:12;;;;;;;12.65;9.58;;;;;;;22.23;63.50;100067.84;2167185;82;21577;-70
2022/07/23 12:03:14;;;;;;;17.17;10.48;;;;;;;22.03;64.31;100076.39;2172127;80;21078;-71
2022/07/23 12:06:15;;;;;;;13.20;10.53;;;;;;;21.96;65.05;100072.19;2170702;82;21027;-71
2022/07/23 12:09:17;;;;;;;15.83;10.82;;;;;;;21.77;65.66;100062.96;2167403;81;20974;-71
2022/07/23 12:12:18;;;;;;;13.83;10.15;;;;;;;21.79;66.50;100079.72;2165054;82;21557;-71
2022/07/23 12:15:29;;;;;;;13.13;11.45;;;;;;;21.86;66.73;100076.36;2167452;82;21042;-71
2022/07/23 12:18:30;;;;;;;13.60;10.82;;;;;;;21.94;67.22;100058.41;2168310;82;21451;-70
2022/07/23 12:21:31;;;;;;;14.78;11.68;;;;;;;21.87;67.53;100063.66;2169301;82;21559;-71
2022/07/23 12:24:57;;;;;;;12.73;11.20;;;;;;;21.89;67.92;100077.22;2167925;81;21028;-71
2022/07/23 12:28:09;;;;;;;14.23;10.98;;;;;;;21.90;68.75;100062.64;2170784;82;22158;-70
2022/07/23 12:31:12;;;;;;;11.83;10.63;;;;;;;21.77;68.83;100055.40;2167399;82;21070;-71
2022/07/23 12:34:15;;;;;;;14.95;12.13;;;;;;;21.81;69.41;100055.19;2169001;81;20983;-71
2022/07/23 12:37:38;;;;;;;13.40;11.45;;;;;;;21.90;69.74;100082.90;2170625;82;21035;-71
2022/07/23 12:40:50;;;;;;;16.57;11.90;;;;;;;22.02;69.63;100098.23;2164545;82;21011;-70
2022/07/23 12:43:54;;;;;;;14.55;10.00;;;;;;;22.13;69.90;100109.00;2164800;82;21593;-71
2022/07/23 12:46:55;;;;;;;12.53;11.25;;;;;;;22.14;70.16;100112.52;2172665;82;21145;-71
2022/07/23 12:49:56;;;;;;;12.13;10.03;;;;;;;22.10;73.20;100120.80;2167077;81;21074;-71
2022/07/23 12:53:10;;;;;;;9.68;8.45;;;;;;;22.05;72.49;100120.20;2172583;81;21011;-70
2022/07/23 12:56:19;;;;;;;10.90;9.00;;;;;;;22.03;72.60;100113.40;2113930;82;21077;-72
2022/07/23 12:59:20;;;;;;;38.92;10.23;;;;;;;22.00;72.79;100106.59;2167002;82;21066;-71
2022/07/23 13:02:21;;;;;;;11.78;9.48;;;;;;;22.04;72.95;100094.77;2173165;80;21066;-71
2022/07/23 13:05:22;;;;;;;12.25;10.18;;;;;;;22.11;72.66;100092.20;2171977;81;21594;-72
2022/07/23 13:08:25;;;;;;;12.63;9.68;;;;;;;22.22;72.49;100081.62;2172854;81;21019;-71
2022/07/23 13:11:26;;;;;;;12.35;9.90;;;;;;;22.34;72.12;100077.76;2176262;80;21063;-71
2022/07/23 13:14:28;;;;;;;11.65;10.45;;;;;;;22.51;72.58;100079.11;2156670;81;21056;-70
2022/07/23 13:17:29;;;;;;;11.03;9.78;;;;;;;22.55;72.29;100075.38;2151508;81;21077;-71
2022/07/23 13:20:33;;;;;;;12.05;10.03;;;;;;;22.53;72.16;100072.13;2188651;80;21096;-71
2022/07/23 13:23:35;;;;;;;10.20;9.20;;;;;;;22.67;72.52;100067.20;2187085;80;22259;-71
2022/07/23 13:26:38;;;;;;;13.50;9.93;;;;;;;22.85;71.94;100059.33;2187504;80;21077;-71
2022/07/23 13:29:41;;;;;;;9.65;8.65;;;;;;;23.19;72.39;100051.96;2183709;80;21070;-71
2022/07/23 13:32:42;;;;;;;8.75;7.87;;;;;;;23.59;71.18;100046.73;2184481;80;21780;-71
2022/07/23 13:35:44;;;;;;;9.80;7.42;;;;;;;23.91;70.54;100050.36;2151686;80;21038;-72
2022/07/23 13:38:45;;;;;;;7.10;6.40;;;;;;;24.19;69.93;100044.89;2187964;80;21018;-71
2022/07/23 13:41:46;;;;;;;8.03;7.22;;;;;;;24.51;68.86;100059.83;2185168;80;21009;-71
2022/07/23 13:44:47;;;;;;;7.95;7.15;;;;;;;24.68;67.66;100063.75;2183388;80;21113;-71
2022/07/23 13:47:48;;;;;;;7.75;7.00;;;;;;;24.86;67.52;100060.59;2186298;80;21021;-71
2022/07/23 13:50:51;;;;;;;9.70;7.40;;;;;;;25.12;67.03;100058.84;2184269;80;21133;-71
2022/07/23 13:53:52;;;;;;;7.78;7.08;;;;;;;25.31;66.56;100054.33;2184255;80;20975;-71
2022/07/23 13:56:53;;;;;;;8.33;7.53;;;;;;;25.42;65.96;100045.94;2184416;80;21061;-71
2022/07/23 13:59:54;;;;;;;9.63;7.55;;;;;;;25.41;65.55;100048.94;2185408;80;21452;-71